Brokaw, Wisconsin
Current Conditions -  °F | °C
As of 2:54 AM on Wednesday 28 Jan 2015 (Local Time) from KAUW Reporting Station
Overcast Overcast  
Wind Chill: 14°   Ceiling: 1000
Heat Index: 23°   Visibility: 10mi
Dew Point: 19°   Wind: 8mph
Humidity: 85%   Direction: 140°SE
Pressure: 30.15"   Gusts: NA
Location:  45.03°N, 89.65°W
Report Text: KAUW 280854Z AUTO 14007KT 10SM OVC010 M05/M07 A3015 RMK AO2 SLP234 T10501072 56009
Loading
Personal Weather Stations






























Interactive Weather Map New forecast layout! Learn more

10-Day Weather Forecast

Advertisements
Track Severe Weather on mobile